Skip Navigation Links
NOAA logo - Click to go to the NOAA homepage
NOAA's National Weather Service
Alaska Aviation Weather Unit
  NWS logo - Click to go to the NWS homepage
Left Navbar Graphic     01 AKDT = 09 GMT

   
NOAA is celebrating 200 years of science, service, and stewardship. Visit the NOAA 200th celebration Web site to learn more.
USA.gov is the U.S. Government's official Web portal to all Federal, state and local government Web resources and services.
Facebook
NWS on Facebook

Important Change Regarding the AAWU Web Presence

 

Over the last several months, the AAWU has been working to navigate its webpages to a nationally supported server. Security, as well as other needs, have necessitated the change.  We have been given an extension for the site changeover while we diligently work at addressing feedback received. As of July 14, 2017, aawu.arh.noaa.gov will be discontinued. The new AAWU web address is weather.gov/aawu. It is now live and will run in-parallel with the old site until it is discontinued on July 14, 2017. Please continue to send any feedback or questions regarding the new webpages to nws.ar.aawu.webauthors@noaa.gov.  Thank you for your patience during this time of transition.
AAWU Home :: Display TAF Add Bookmark
SPECI PAMM 190335Z AUTO 17006KT 10SM BKN010 OVC050 13/12 A3009 RMK AO2
     RAE35 P0003=

SPECI PAMM 190350Z AUTO 15005KT 10SM FEW008 OVC060 12/12 A3009 RMK AO2
     RAE35 P0003=

METAR PAMM 190456Z AUTO 16004KT 8SM OVC080 12/11 A3010 RMK AO2 SLP184
     T01170106=

SPECI PAMM 190540Z AUTO 17006KT 8SM OVC029 12/11 A3011 RMK AO2=

METAR PAMM 190556Z AUTO 00000KT 3SM BR BKN029 12/11 A3011 RMK AO2
 SLP188 60004 T01170106 10161 20117 53007=

METAR PAMM 190656Z AUTO 11003KT 8SM OVC019 11/11 A3012 RMK AO2
 SLP192 T01110106=

SPECI PAMM 190733Z AUTO 00000KT 10SM FEW019 BKN045 BKN070 12/10 A3013
     RMK AO2=

METAR PAMM 190756Z AUTO 13003KT 9SM FEW047 11/10 A3013 RMK AO2
 SLP195 T01060100 401720106=

METAR PAMM 190856Z AUTO 16004KT 10SM FEW047 SCT060 12/11 A3014 RMK
 AO2 SLP197 T01170106 51009=


NOAA's National Weather Service
Alaska Aviation Weather Unit
6930 Sand Lake Road
Anchorage, AK 99502-1845
Disclaimer
Credits
Glossary
Privacy Policy
About Us
Career Opportunities
Contact AAWU Internet Services Site last modified: April, 17th 2012